createdAt,value
2022-12-31T00:01:48.751Z,101202.94
2022-12-31T00:05:03.733Z,101201.69
2022-12-31T00:08:05.822Z,101209.13
2022-12-31T00:11:21.758Z,101216.37
2022-12-31T00:14:30.596Z,101221.50
2022-12-31T00:17:39.865Z,101211.16
2022-12-31T00:20:49.397Z,101211.94
2022-12-31T00:24:04.859Z,101217.94
2022-12-31T00:27:13.420Z,101221.56
2022-12-31T00:30:22.750Z,101241.06
2022-12-31T00:33:37.772Z,101228.91
2022-12-31T00:36:40.204Z,101245.38
2022-12-31T00:39:54.760Z,101236.97
2022-12-31T00:42:56.684Z,101248.22
2022-12-31T00:46:12.813Z,101239.72
2022-12-31T00:49:21.891Z,101245.06
2022-12-31T00:52:31.350Z,101245.81
2022-12-31T00:55:45.793Z,101245.72
2022-12-31T00:58:48.316Z,101249.06
2022-12-31T01:02:02.814Z,101241.53
2022-12-31T01:05:05.342Z,101260.00
2022-12-31T01:08:19.757Z,101262.75
2022-12-31T01:11:23.107Z,101259.88
2022-12-31T01:14:37.773Z,101263.78
2022-12-31T01:17:39.658Z,101256.00
2022-12-31T01:20:55.788Z,101260.47
2022-12-31T01:24:11.792Z,101247.41
2022-12-31T01:27:13.781Z,101253.31
2022-12-31T01:30:28.753Z,101260.25
2022-12-31T01:33:30.635Z,101259.50
2022-12-31T01:36:46.767Z,101269.31
2022-12-31T01:39:55.802Z,101261.22
2022-12-31T01:43:20.460Z,101266.84
2022-12-31T01:46:35.897Z,101257.69
2022-12-31T01:49:51.407Z,101263.87
2022-12-31T01:53:04.748Z,101267.97
2022-12-31T01:56:20.764Z,101258.06
2022-12-31T01:59:27.034Z,101261.59
2022-12-31T02:02:43.806Z,101265.19
2022-12-31T02:06:01.792Z,101259.66
2022-12-31T02:09:11.783Z,101269.38
2022-12-31T02:12:19.766Z,101277.94
2022-12-31T02:15:52.824Z,101271.66
2022-12-31T02:19:29.495Z,101274.09
2022-12-31T02:23:08.841Z,101274.00
2022-12-31T02:26:37.534Z,101273.16
2022-12-31T02:30:06.951Z,101268.97
2022-12-31T02:33:29.833Z,101253.09
2022-12-31T02:36:50.800Z,101254.22
2022-12-31T02:39:59.828Z,101270.59
2022-12-31T02:43:15.211Z,101268.50
2022-12-31T02:46:38.019Z,101270.84
2022-12-31T02:50:09.820Z,101273.81
2022-12-31T02:53:47.785Z,101272.88
2022-12-31T02:57:19.796Z,101284.28
2022-12-31T03:00:22.387Z,101266.34
2022-12-31T03:03:37.893Z,101260.91
2022-12-31T03:06:46.912Z,101252.38
2022-12-31T03:09:56.795Z,101249.63
2022-12-31T03:13:11.829Z,101245.25
2022-12-31T03:16:20.503Z,101250.78
2022-12-31T03:19:28.834Z,101260.19
2022-12-31T03:22:47.896Z,101254.56
2022-12-31T03:25:49.983Z,101231.59
2022-12-31T03:29:04.818Z,101251.69
2022-12-31T03:32:19.925Z,101258.16
2022-12-31T03:35:22.246Z,101249.22
2022-12-31T03:38:36.802Z,101250.16
2022-12-31T03:41:45.849Z,101251.22
2022-12-31T03:45:07.839Z,101263.47
2022-12-31T03:48:19.099Z,101242.81
2022-12-31T03:51:33.802Z,101241.13
2022-12-31T03:54:42.583Z,101236.63
2022-12-31T03:57:51.931Z,101246.87
2022-12-31T04:01:06.975Z,101249.53
2022-12-31T04:04:09.039Z,101247.41
2022-12-31T04:07:23.841Z,101248.56
2022-12-31T04:10:32.460Z,101252.62
2022-12-31T04:13:46.821Z,101245.69
2022-12-31T04:16:54.842Z,101250.25
2022-12-31T04:20:04.378Z,101258.25
2022-12-31T04:23:19.825Z,101259.69
2022-12-31T04:26:29.104Z,101260.75
2022-12-31T04:29:43.825Z,101245.38
2022-12-31T04:32:45.703Z,101264.63
2022-12-31T04:36:07.955Z,101275.47
2022-12-31T04:39:10.335Z,101278.13
2022-12-31T04:42:24.877Z,101269.94
2022-12-31T04:45:39.869Z,101273.97
2022-12-31T04:48:54.928Z,101290.31
2022-12-31T04:51:57.140Z,101291.81
2022-12-31T04:55:12.894Z,101293.31
2022-12-31T04:58:15.073Z,101296.66
2022-12-31T05:01:31.242Z,101304.41
2022-12-31T05:04:33.243Z,101308.56
2022-12-31T05:07:47.962Z,101313.81
2022-12-31T05:10:49.905Z,101317.44
2022-12-31T05:14:04.906Z,101308.03
2022-12-31T05:17:13.619Z,101315.44
2022-12-31T05:20:22.970Z,101326.84
2022-12-31T05:23:37.881Z,101335.31
2022-12-31T05:26:45.877Z,101320.88
2022-12-31T05:30:00.856Z,101321.91
2022-12-31T05:33:09.799Z,101323.62
2022-12-31T05:36:17.941Z,101327.91
2022-12-31T05:39:32.953Z,101332.09
2022-12-31T05:42:41.900Z,101343.59
2022-12-31T05:45:50.608Z,101356.94
2022-12-31T05:49:00.916Z,101356.94
2022-12-31T05:52:16.884Z,101356.09
2022-12-31T05:55:24.849Z,101359.81
2022-12-31T05:58:33.653Z,101365.66
2022-12-31T06:01:48.871Z,101365.44
2022-12-31T06:04:57.500Z,101362.78
2022-12-31T06:08:05.929Z,101350.28
2022-12-31T06:11:20.947Z,101351.16
2022-12-31T06:14:29.680Z,101366.50
2022-12-31T06:17:44.985Z,101368.22
2022-12-31T06:20:53.527Z,101360.41
2022-12-31T06:24:02.004Z,101359.47
2022-12-31T06:27:10.561Z,101340.28
2022-12-31T06:30:25.120Z,101345.66
2022-12-31T06:33:27.323Z,101352.41
2022-12-31T06:36:41.906Z,101374.81
2022-12-31T06:39:44.017Z,101372.69
2022-12-31T06:43:00.293Z,101373.25
2022-12-31T06:46:04.245Z,101373.84
2022-12-31T06:49:19.952Z,101385.47
2022-12-31T06:52:22.036Z,101386.13
2022-12-31T06:55:37.917Z,101386.69
2022-12-31T06:58:47.867Z,101386.78
2022-12-31T07:02:14.014Z,101389.00
2022-12-31T07:05:39.365Z,101380.16
2022-12-31T07:09:07.945Z,101389.97
2022-12-31T07:12:36.332Z,101396.16
2022-12-31T07:16:07.061Z,101396.81
2022-12-31T07:19:44.430Z,101397.44
2022-12-31T07:22:52.892Z,101398.78
2022-12-31T07:26:24.921Z,101408.50
2022-12-31T07:29:42.664Z,101417.13
2022-12-31T07:33:18.044Z,101406.66
2022-12-31T07:36:59.978Z,101408.09
2022-12-31T07:40:24.929Z,101408.66
2022-12-31T07:43:53.117Z,101410.47
2022-12-31T07:47:03.967Z,101412.69
2022-12-31T07:50:22.952Z,101412.69
2022-12-31T07:53:25.605Z,101421.62
2022-12-31T07:56:39.977Z,101425.25
2022-12-31T08:00:11.955Z,101429.34
2022-12-31T08:03:50.589Z,101432.38
2022-12-31T08:07:19.128Z,101429.63
2022-12-31T08:10:54.999Z,101443.22
2022-12-31T08:14:10.976Z,101436.75
2022-12-31T08:17:15.714Z,101435.91
2022-12-31T08:20:29.953Z,101434.44
2022-12-31T08:23:54.350Z,101456.56
2022-12-31T08:27:29.989Z,101461.97
2022-12-31T08:30:53.380Z,101462.44
2022-12-31T08:34:22.990Z,101477.34
2022-12-31T08:38:04.127Z,101474.16
2022-12-31T08:41:28.373Z,101486.91
2022-12-31T08:45:08.980Z,101477.75
2022-12-31T08:48:39.020Z,101496.88
2022-12-31T08:51:48.033Z,101514.19
2022-12-31T08:54:57.009Z,101502.31
2022-12-31T08:58:32.340Z,101497.66
2022-12-31T09:02:09.072Z,101497.53
2022-12-31T09:05:41.988Z,101487.75
2022-12-31T09:09:03.812Z,101503.22
2022-12-31T09:12:39.005Z,101505.34
2022-12-31T09:16:09.041Z,101513.69
2022-12-31T09:19:11.669Z,101498.81
2022-12-31T09:22:26.983Z,101498.63
2022-12-31T09:25:36.017Z,101502.66
2022-12-31T09:29:08.054Z,101495.41
2022-12-31T09:32:25.851Z,101491.88
2022-12-31T09:35:58.986Z,101486.47
2022-12-31T09:39:13.576Z,101484.31
2022-12-31T09:42:52.979Z,101473.41
2022-12-31T09:46:32.032Z,101467.75
2022-12-31T09:50:08.118Z,101464.31
2022-12-31T09:53:35.876Z,101453.44
2022-12-31T09:56:58.796Z,101455.25
2022-12-31T10:00:20.184Z,101435.91
2022-12-31T10:04:01.035Z,101437.63
2022-12-31T10:07:51.982Z,101431.19
2022-12-31T10:11:06.118Z,101431.19
2022-12-31T10:14:49.022Z,101429.56
2022-12-31T10:18:10.845Z,101435.12
2022-12-31T10:21:55.217Z,101431.06
2022-12-31T10:25:38.451Z,101432.03
2022-12-31T10:29:02.166Z,101439.06
2022-12-31T10:32:33.034Z,101435.34
2022-12-31T10:35:57.016Z,101442.31
2022-12-31T10:39:30.104Z,101441.44
2022-12-31T10:42:52.074Z,101451.47
2022-12-31T10:46:42.102Z,101447.63
2022-12-31T10:50:28.067Z,101443.37
2022-12-31T10:53:52.206Z,101433.53
2022-12-31T10:57:27.117Z,101421.03
2022-12-31T11:00:53.580Z,101448.00
2022-12-31T11:04:45.061Z,101430.13
2022-12-31T11:08:17.122Z,101440.81
2022-12-31T11:11:55.869Z,101435.66
2022-12-31T11:15:24.056Z,101422.44
2022-12-31T11:19:00.361Z,101418.25
2022-12-31T11:22:32.073Z,101415.91
2022-12-31T11:26:17.242Z,101413.56
2022-12-31T11:29:59.119Z,101414.81
2022-12-31T11:33:21.181Z,101421.97
2022-12-31T11:36:56.162Z,101424.03
2022-12-31T11:40:26.147Z,101421.16
2022-12-31T11:43:56.089Z,101423.28
2022-12-31T11:47:23.092Z,101415.03
2022-12-31T11:50:55.215Z,101419.63
2022-12-31T11:54:41.061Z,101405.81
2022-12-31T11:57:52.471Z,101406.37
2022-12-31T12:01:24.082Z,101401.34
2022-12-31T12:04:32.921Z,101411.91
2022-12-31T12:07:48.084Z,101423.00
2022-12-31T12:11:00.080Z,101426.63
2022-12-31T12:14:27.147Z,101422.03
2022-12-31T12:17:39.296Z,101421.94
2022-12-31T12:20:48.017Z,101425.16
2022-12-31T12:24:08.093Z,101429.03
2022-12-31T12:27:27.401Z,101435.41
2022-12-31T12:30:45.220Z,101441.53
2022-12-31T12:33:48.633Z,101438.22
2022-12-31T12:37:03.101Z,101435.84
2022-12-31T12:40:27.021Z,101436.22
2022-12-31T12:43:42.129Z,101422.69
2022-12-31T12:47:05.226Z,101419.69
2022-12-31T12:50:23.244Z,101422.41
2022-12-31T12:54:14.144Z,101420.41
2022-12-31T12:57:32.345Z,101429.13
2022-12-31T13:01:03.246Z,101413.53
2022-12-31T13:04:36.182Z,101406.75
2022-12-31T13:08:05.104Z,101405.44
2022-12-31T13:12:07.326Z,101406.91
2022-12-31T13:15:27.085Z,101409.31
2022-12-31T13:19:00.329Z,101405.44
2022-12-31T13:22:25.806Z,101398.03
2022-12-31T13:25:50.165Z,101415.25
2022-12-31T13:29:02.326Z,101407.53
2022-12-31T13:32:15.206Z,101425.66
2022-12-31T13:35:40.825Z,101431.66
2022-12-31T13:38:59.169Z,101430.22
2022-12-31T13:42:18.251Z,101430.06
2022-12-31T13:45:42.057Z,101423.19
2022-12-31T13:49:00.228Z,101418.09
2022-12-31T13:52:35.160Z,101405.16
2022-12-31T13:55:44.476Z,101426.06
2022-12-31T13:59:08.149Z,101421.91
2022-12-31T14:02:35.329Z,101422.59
2022-12-31T14:05:53.117Z,101432.09
2022-12-31T14:09:09.178Z,101452.22
2022-12-31T14:12:37.864Z,101450.91
2022-12-31T14:16:09.110Z,101441.16
2022-12-31T14:19:41.185Z,101443.28
2022-12-31T14:23:11.164Z,101442.31
2022-12-31T14:26:25.121Z,101448.28
2022-12-31T14:30:04.445Z,101438.59
2022-12-31T14:33:37.207Z,101451.38
2022-12-31T14:37:08.163Z,101457.59
2022-12-31T14:40:41.844Z,101446.47
2022-12-31T14:44:12.199Z,101454.56
2022-12-31T14:47:35.994Z,101456.78
2022-12-31T14:50:53.147Z,101448.97
2022-12-31T14:53:56.586Z,101444.50
2022-12-31T14:57:30.199Z,101439.84
2022-12-31T15:00:42.156Z,101446.94
2022-12-31T15:03:51.124Z,101440.53
2022-12-31T15:07:13.284Z,101453.38
2022-12-31T15:10:36.200Z,101440.78
2022-12-31T15:14:14.168Z,101453.63
2022-12-31T15:17:58.684Z,101437.44
2022-12-31T15:21:31.239Z,101438.84
2022-12-31T15:24:45.942Z,101433.78
2022-12-31T15:27:55.170Z,101438.47
2022-12-31T15:31:20.935Z,101461.59
2022-12-31T15:34:42.315Z,101456.19
2022-12-31T15:38:09.692Z,101467.63
2022-12-31T15:42:10.187Z,101460.34
2022-12-31T15:45:21.260Z,101457.59
2022-12-31T15:48:52.293Z,101464.28
2022-12-31T15:52:08.217Z,101466.75
2022-12-31T15:55:39.211Z,101477.00
2022-12-31T15:58:54.354Z,101474.94
2022-12-31T16:02:03.343Z,101465.72
2022-12-31T16:05:28.284Z,101467.69
2022-12-31T16:08:41.169Z,101458.97
2022-12-31T16:11:57.213Z,101460.03
2022-12-31T16:15:07.117Z,101464.94
2022-12-31T16:18:23.458Z,101471.66
2022-12-31T16:21:43.210Z,101457.19
2022-12-31T16:28:27.239Z,101448.84
2022-12-31T16:31:42.220Z,101455.69
2022-12-31T16:34:50.853Z,101447.56
2022-12-31T16:38:17.311Z,101448.16
2022-12-31T16:41:32.205Z,101447.94
2022-12-31T16:44:34.079Z,101438.44
2022-12-31T16:47:56.180Z,101451.38
2022-12-31T16:50:58.662Z,101448.91
2022-12-31T16:54:26.329Z,101453.84
2022-12-31T16:57:35.145Z,101468.72
2022-12-31T17:00:44.264Z,101483.41
2022-12-31T17:03:58.220Z,101468.28
2022-12-31T17:07:26.329Z,101470.13
2022-12-31T17:10:36.210Z,101462.31
2022-12-31T17:13:45.198Z,101472.91
2022-12-31T17:17:07.969Z,101484.47
2022-12-31T17:20:29.213Z,101481.81
2022-12-31T17:23:39.569Z,101476.78
2022-12-31T17:26:54.265Z,101472.38
2022-12-31T17:30:19.185Z,101462.44
2022-12-31T17:33:37.283Z,101477.31
2022-12-31T17:36:57.241Z,101481.44
2022-12-31T17:40:50.342Z,101493.12
2022-12-31T17:43:59.363Z,101496.91
2022-12-31T17:47:18.258Z,101498.97
2022-12-31T17:50:28.206Z,101498.37
2022-12-31T17:53:36.277Z,101500.12
2022-12-31T17:56:45.689Z,101501.81
2022-12-31T17:59:54.271Z,101508.25
2022-12-31T18:03:03.727Z,101504.22
2022-12-31T18:06:19.480Z,101502.09
2022-12-31T18:09:34.377Z,101507.56
2022-12-31T18:12:37.181Z,101494.41
2022-12-31T18:15:52.462Z,101492.03
2022-12-31T18:18:57.673Z,101491.53
2022-12-31T18:22:12.349Z,101494.41
2022-12-31T18:25:23.648Z,101485.66
2022-12-31T18:28:32.500Z,101492.94
2022-12-31T18:31:43.496Z,101498.72
2022-12-31T18:34:52.289Z,101503.56
2022-12-31T18:38:01.112Z,101500.25
2022-12-31T18:41:10.299Z,101508.37
2022-12-31T18:44:25.277Z,101500.81
2022-12-31T18:47:37.696Z,101511.28
2022-12-31T18:50:47.396Z,101521.78
2022-12-31T18:53:56.645Z,101520.81
2022-12-31T18:57:05.393Z,101527.12
2022-12-31T19:00:14.784Z,101531.00
2022-12-31T19:03:29.373Z,101525.31
2022-12-31T19:06:44.434Z,101534.91
2022-12-31T19:09:48.296Z,101533.03
2022-12-31T19:13:05.318Z,101527.44
2022-12-31T19:16:08.770Z,101527.78
2022-12-31T19:19:24.423Z,101529.81
2022-12-31T19:22:33.417Z,101520.19
2022-12-31T19:25:42.321Z,101524.69
2022-12-31T19:28:51.226Z,101524.44
2022-12-31T19:32:00.336Z,101525.31
2022-12-31T19:35:12.010Z,101520.69
2022-12-31T19:38:33.455Z,101519.31
2022-12-31T19:41:42.290Z,101512.69
2022-12-31T19:44:58.884Z,101529.72
2022-12-31T19:48:07.419Z,101538.59
2022-12-31T19:51:18.569Z,101538.59
2022-12-31T19:54:27.338Z,101533.66
2022-12-31T19:57:42.318Z,101526.19
2022-12-31T20:00:49.646Z,101521.69
2022-12-31T20:04:08.377Z,101500.50
2022-12-31T20:07:10.314Z,101492.59
2022-12-31T20:10:27.333Z,101497.81
2022-12-31T20:13:36.495Z,101499.09
2022-12-31T20:16:45.065Z,101506.62
2022-12-31T20:19:54.347Z,101507.47
2022-12-31T20:23:03.235Z,101499.44
2022-12-31T20:26:11.338Z,101493.22
2022-12-31T20:29:26.463Z,101496.88
2022-12-31T20:32:28.985Z,101495.78
2022-12-31T20:35:43.319Z,101509.28
2022-12-31T20:38:52.236Z,101504.97
2022-12-31T20:42:00.366Z,101504.97
2022-12-31T20:45:22.380Z,101506.91
2022-12-31T20:48:31.368Z,101507.78
2022-12-31T20:51:51.939Z,101518.37
2022-12-31T20:55:01.149Z,101522.97
2022-12-31T20:58:16.426Z,101513.25
2022-12-31T21:01:21.233Z,101503.50
2022-12-31T21:04:36.507Z,101504.78
2022-12-31T21:07:38.420Z,101501.16
2022-12-31T21:10:56.375Z,101499.53
2022-12-31T21:14:05.374Z,101493.66
2022-12-31T21:17:20.388Z,101493.88
2022-12-31T21:20:23.087Z,101498.34
2022-12-31T21:23:37.357Z,101501.47
2022-12-31T21:26:52.415Z,101505.19
2022-12-31T21:30:22.599Z,101515.37
2022-12-31T21:33:31.357Z,101524.56
2022-12-31T21:36:39.985Z,101522.84
2022-12-31T21:39:55.383Z,101537.16
2022-12-31T21:43:04.217Z,101534.50
2022-12-31T21:46:19.441Z,101534.31
2022-12-31T21:49:21.534Z,101541.38
2022-12-31T21:52:36.395Z,101541.38
2022-12-31T21:55:52.412Z,101550.34
2022-12-31T21:59:07.610Z,101553.13
2022-12-31T22:02:23.474Z,101544.56
2022-12-31T22:05:32.418Z,101548.19
2022-12-31T22:08:50.514Z,101543.91
2022-12-31T22:11:59.579Z,101552.97
2022-12-31T22:15:15.640Z,101552.56
2022-12-31T22:18:24.506Z,101551.38
2022-12-31T22:21:39.413Z,101543.47
2022-12-31T22:24:41.206Z,101546.44
2022-12-31T22:28:36.147Z,101555.63
2022-12-31T22:31:29.459Z,101557.34
2022-12-31T22:34:44.460Z,101551.34
2022-12-31T22:37:58.499Z,101553.34
2022-12-31T22:41:21.430Z,101545.25
2022-12-31T22:44:23.361Z,101549.75
2022-12-31T22:47:45.455Z,101537.31
2022-12-31T22:51:02.398Z,101535.63
2022-12-31T22:54:04.470Z,101527.81
2022-12-31T22:57:20.318Z,101523.66
2022-12-31T23:00:46.454Z,101524.19
2022-12-31T23:04:02.600Z,101528.66
2022-12-31T23:07:11.492Z,101523.72
2022-12-31T23:10:20.132Z,101521.16
2022-12-31T23:13:28.486Z,101518.13
2022-12-31T23:16:43.482Z,101522.53
2022-12-31T23:19:52.202Z,101514.59
2022-12-31T23:23:00.414Z,101507.44
2022-12-31T23:26:15.421Z,101518.44
2022-12-31T23:29:19.658Z,101513.97
2022-12-31T23:32:35.397Z,101504.84
2022-12-31T23:35:37.466Z,101529.78
2022-12-31T23:38:52.565Z,101517.81
2022-12-31T23:41:54.509Z,101530.22
2022-12-31T23:45:10.455Z,101533.84
2022-12-31T23:48:19.131Z,101535.84
2022-12-31T23:51:33.424Z,101549.19
2022-12-31T23:54:35.400Z,101541.97
2022-12-31T23:57:50.470Z,101530.38
